sensor_id;sensor_type;location;lat;lon;timestamp;P1;durP1;ratioP1;P2;durP2;ratioP2
27113;SDS011;14648;49.730;8.614;2023-02-13T00:01:37;15.60;;;8.20;;
27113;SDS011;14648;49.730;8.614;2023-02-13T00:04:03;19.23;;;8.13;;
27113;SDS011;14648;49.730;8.614;2023-02-13T00:06:29;18.23;;;8.37;;
27113;SDS011;14648;49.730;8.614;2023-02-13T00:08:55;15.97;;;7.73;;
27113;SDS011;14648;49.730;8.614;2023-02-13T00:11:20;11.63;;;7.27;;
27113;SDS011;14648;49.730;8.614;2023-02-13T00:13:46;14.87;;;7.77;;
27113;SDS011;14648;49.730;8.614;2023-02-13T00:16:12;12.90;;;7.33;;
27113;SDS011;14648;49.730;8.614;2023-02-13T00:18:37;12.83;;;7.30;;
27113;SDS011;14648;49.730;8.614;2023-02-13T00:21:10;14.40;;;8.17;;
27113;SDS011;14648;49.730;8.614;2023-02-13T00:23:37;13.30;;;7.27;;
27113;SDS011;14648;49.730;8.614;2023-02-13T00:26:05;16.80;;;8.60;;
27113;SDS011;14648;49.730;8.614;2023-02-13T00:28:36;12.70;;;7.80;;
27113;SDS011;14648;49.730;8.614;2023-02-13T00:31:05;13.60;;;8.47;;
27113;SDS011;14648;49.730;8.614;2023-02-13T00:33:34;15.73;;;7.03;;
27113;SDS011;14648;49.730;8.614;2023-02-13T00:36:10;16.60;;;7.87;;
27113;SDS011;14648;49.730;8.614;2023-02-13T00:38:41;13.87;;;7.87;;
27113;SDS011;14648;49.730;8.614;2023-02-13T00:41:08;14.37;;;7.10;;
27113;SDS011;14648;49.730;8.614;2023-02-13T00:43:34;13.27;;;6.73;;
27113;SDS011;14648;49.730;8.614;2023-02-13T00:46:00;19.40;;;8.67;;
27113;SDS011;14648;49.730;8.614;2023-02-13T00:48:26;16.27;;;7.63;;
27113;SDS011;14648;49.730;8.614;2023-02-13T00:50:54;14.93;;;7.70;;
27113;SDS011;14648;49.730;8.614;2023-02-13T00:53:20;13.50;;;8.27;;
27113;SDS011;14648;49.730;8.614;2023-02-13T00:55:48;14.10;;;8.20;;
27113;SDS011;14648;49.730;8.614;2023-02-13T00:58:14;19.30;;;9.43;;
27113;SDS011;14648;49.730;8.614;2023-02-13T01:00:41;11.90;;;7.47;;
27113;SDS011;14648;49.730;8.614;2023-02-13T01:03:08;15.83;;;7.77;;
27113;SDS011;14648;49.730;8.614;2023-02-13T01:05:34;15.20;;;8.03;;
27113;SDS011;14648;49.730;8.614;2023-02-13T01:08:00;15.73;;;7.80;;
27113;SDS011;14648;49.730;8.614;2023-02-13T01:10:26;18.40;;;8.80;;
27113;SDS011;14648;49.730;8.614;2023-02-13T01:12:52;16.13;;;7.83;;
27113;SDS011;14648;49.730;8.614;2023-02-13T01:15:18;11.97;;;6.53;;
27113;SDS011;14648;49.730;8.614;2023-02-13T01:17:44;15.23;;;8.13;;
27113;SDS011;14648;49.730;8.614;2023-02-13T01:20:10;19.40;;;9.87;;
27113;SDS011;14648;49.730;8.614;2023-02-13T01:22:37;15.03;;;7.50;;
27113;SDS011;14648;49.730;8.614;2023-02-13T01:25:04;16.17;;;10.00;;
27113;SDS011;14648;49.730;8.614;2023-02-13T01:27:31;16.03;;;7.10;;
27113;SDS011;14648;49.730;8.614;2023-02-13T01:29:57;13.40;;;7.90;;
27113;SDS011;14648;49.730;8.614;2023-02-13T01:32:24;14.30;;;7.50;;
27113;SDS011;14648;49.730;8.614;2023-02-13T01:34:50;10.63;;;6.73;;
27113;SDS011;14648;49.730;8.614;2023-02-13T01:37:16;14.27;;;7.50;;
27113;SDS011;14648;49.730;8.614;2023-02-13T01:39:42;14.70;;;7.53;;
27113;SDS011;14648;49.730;8.614;2023-02-13T01:42:13;13.70;;;6.80;;
27113;SDS011;14648;49.730;8.614;2023-02-13T01:47:14;13.73;;;7.17;;
27113;SDS011;14648;49.730;8.614;2023-02-13T01:49:46;12.23;;;7.17;;
27113;SDS011;14648;49.730;8.614;2023-02-13T01:52:14;14.47;;;7.90;;
27113;SDS011;14648;49.730;8.614;2023-02-13T01:54:41;13.27;;;7.47;;
27113;SDS011;14648;49.730;8.614;2023-02-13T01:57:26;19.00;;;8.77;;
27113;SDS011;14648;49.730;8.614;2023-02-13T01:59:58;17.03;;;8.60;;
27113;SDS011;14648;49.730;8.614;2023-02-13T02:02:38;21.73;;;9.83;;
27113;SDS011;14648;49.730;8.614;2023-02-13T02:05:09;18.43;;;8.77;;
27113;SDS011;14648;49.730;8.614;2023-02-13T02:07:36;18.37;;;9.40;;
27113;SDS011;14648;49.730;8.614;2023-02-13T02:10:06;24.13;;;10.63;;
27113;SDS011;14648;49.730;8.614;2023-02-13T02:12:52;17.37;;;9.57;;
27113;SDS011;14648;49.730;8.614;2023-02-13T02:15:39;21.67;;;9.00;;
27113;SDS011;14648;49.730;8.614;2023-02-13T02:18:14;14.90;;;7.73;;
27113;SDS011;14648;49.730;8.614;2023-02-13T02:21:08;16.27;;;8.63;;
27113;SDS011;14648;49.730;8.614;2023-02-13T02:27:11;14.80;;;6.73;;
27113;SDS011;14648;49.730;8.614;2023-02-13T02:44:44;8.83;;;5.27;;
27113;SDS011;14648;49.730;8.614;2023-02-13T02:47:39;11.23;;;5.93;;
27113;SDS011;14648;49.730;8.614;2023-02-13T02:50:39;9.30;;;5.40;;
27113;SDS011;14648;49.730;8.614;2023-02-13T02:54:02;13.83;;;7.30;;
27113;SDS011;14648;49.730;8.614;2023-02-13T02:57:08;13.87;;;7.30;;
27113;SDS011;14648;49.730;8.614;2023-02-13T02:59:39;11.43;;;5.63;;
27113;SDS011;14648;49.730;8.614;2023-02-13T03:02:26;7.87;;;5.80;;
27113;SDS011;14648;49.730;8.614;2023-02-13T03:05:46;11.30;;;5.03;;
27113;SDS011;14648;49.730;8.614;2023-02-13T03:08:27;8.57;;;5.77;;
27113;SDS011;14648;49.730;8.614;2023-02-13T03:11:12;10.00;;;5.90;;
27113;SDS011;14648;49.730;8.614;2023-02-13T03:13:56;9.27;;;6.00;;
27113;SDS011;14648;49.730;8.614;2023-02-13T03:16:24;17.00;;;7.87;;
27113;SDS011;14648;49.730;8.614;2023-02-13T03:19:12;8.30;;;5.50;;
27113;SDS011;14648;49.730;8.614;2023-02-13T03:22:40;9.57;;;6.00;;
27113;SDS011;14648;49.730;8.614;2023-02-13T03:25:18;8.87;;;5.50;;
27113;SDS011;14648;49.730;8.614;2023-02-13T03:28:01;8.80;;;5.00;;
27113;SDS011;14648;49.730;8.614;2023-02-13T03:33:52;8.10;;;5.67;;
27113;SDS011;14648;49.730;8.614;2023-02-13T03:36:32;9.50;;;5.43;;
27113;SDS011;14648;49.730;8.614;2023-02-13T03:39:30;8.93;;;5.40;;
27113;SDS011;14648;49.730;8.614;2023-02-13T03:42:47;9.23;;;5.50;;
27113;SDS011;14648;49.730;8.614;2023-02-13T03:45:29;10.50;;;5.30;;
27113;SDS011;14648;49.730;8.614;2023-02-13T03:48:33;10.33;;;5.50;;
27113;SDS011;14648;49.730;8.614;2023-02-13T03:51:21;9.40;;;5.53;;
27113;SDS011;14648;49.730;8.614;2023-02-13T03:54:20;8.47;;;4.77;;
27113;SDS011;14648;49.730;8.614;2023-02-13T03:57:09;8.47;;;5.50;;
27113;SDS011;14648;49.730;8.614;2023-02-13T04:00:00;8.37;;;5.40;;
27113;SDS011;14648;49.730;8.614;2023-02-13T04:02:32;6.20;;;4.57;;
27113;SDS011;14648;49.730;8.614;2023-02-13T04:05:04;7.20;;;4.80;;
27113;SDS011;14648;49.730;8.614;2023-02-13T04:07:37;8.80;;;5.10;;
27113;SDS011;14648;49.730;8.614;2023-02-13T04:10:04;9.80;;;4.60;;
27113;SDS011;14648;49.730;8.614;2023-02-13T04:15:41;6.50;;;4.60;;
27113;SDS011;14648;49.730;8.614;2023-02-13T04:18:16;8.83;;;4.93;;
27113;SDS011;14648;49.730;8.614;2023-02-13T04:20:46;8.33;;;5.00;;
27113;SDS011;14648;49.730;8.614;2023-02-13T04:23:13;8.90;;;5.43;;
27113;SDS011;14648;49.730;8.614;2023-02-13T04:25:40;9.20;;;4.57;;
27113;SDS011;14648;49.730;8.614;2023-02-13T04:28:10;8.00;;;4.87;;
27113;SDS011;14648;49.730;8.614;2023-02-13T04:30:36;9.17;;;5.10;;
27113;SDS011;14648;49.730;8.614;2023-02-13T04:33:02;9.90;;;5.80;;
27113;SDS011;14648;49.730;8.614;2023-02-13T04:35:28;9.27;;;4.77;;
27113;SDS011;14648;49.730;8.614;2023-02-13T04:37:53;10.40;;;5.30;;
27113;SDS011;14648;49.730;8.614;2023-02-13T04:40:19;7.83;;;4.40;;
27113;SDS011;14648;49.730;8.614;2023-02-13T04:42:46;8.20;;;5.20;;
27113;SDS011;14648;49.730;8.614;2023-02-13T04:45:13;9.43;;;4.10;;
27113;SDS011;14648;49.730;8.614;2023-02-13T04:47:39;9.03;;;4.87;;
27113;SDS011;14648;49.730;8.614;2023-02-13T04:50:05;8.70;;;4.90;;
27113;SDS011;14648;49.730;8.614;2023-02-13T04:52:31;8.83;;;4.70;;
27113;SDS011;14648;49.730;8.614;2023-02-13T04:54:57;7.83;;;4.63;;
27113;SDS011;14648;49.730;8.614;2023-02-13T04:57:22;6.07;;;3.80;;
27113;SDS011;14648;49.730;8.614;2023-02-13T04:59:48;9.97;;;4.83;;
27113;SDS011;14648;49.730;8.614;2023-02-13T05:02:18;9.90;;;5.27;;
27113;SDS011;14648;49.730;8.614;2023-02-13T05:04:43;9.23;;;4.33;;
27113;SDS011;14648;49.730;8.614;2023-02-13T05:07:14;7.10;;;4.60;;
27113;SDS011;14648;49.730;8.614;2023-02-13T05:09:40;10.47;;;6.10;;
27113;SDS011;14648;49.730;8.614;2023-02-13T05:12:05;8.33;;;4.90;;
27113;SDS011;14648;49.730;8.614;2023-02-13T05:14:31;10.00;;;5.57;;
27113;SDS011;14648;49.730;8.614;2023-02-13T05:16:57;11.17;;;5.40;;
27113;SDS011;14648;49.730;8.614;2023-02-13T05:19:22;6.20;;;4.20;;
27113;SDS011;14648;49.730;8.614;2023-02-13T05:21:48;6.93;;;4.70;;
27113;SDS011;14648;49.730;8.614;2023-02-13T05:24:46;10.90;;;5.00;;
27113;SDS011;14648;49.730;8.614;2023-02-13T05:27:11;9.20;;;5.10;;
27113;SDS011;14648;49.730;8.614;2023-02-13T05:29:37;10.47;;;5.97;;
27113;SDS011;14648;49.730;8.614;2023-02-13T05:32:02;8.40;;;5.27;;
27113;SDS011;14648;49.730;8.614;2023-02-13T05:34:28;9.80;;;5.00;;
27113;SDS011;14648;49.730;8.614;2023-02-13T05:36:54;6.27;;;4.30;;
27113;SDS011;14648;49.730;8.614;2023-02-13T05:39:20;7.30;;;4.37;;
27113;SDS011;14648;49.730;8.614;2023-02-13T05:41:46;14.60;;;5.10;;
27113;SDS011;14648;49.730;8.614;2023-02-13T05:44:13;9.40;;;4.70;;
27113;SDS011;14648;49.730;8.614;2023-02-13T05:46:40;10.97;;;5.10;;
27113;SDS011;14648;49.730;8.614;2023-02-13T05:49:08;5.90;;;4.10;;
27113;SDS011;14648;49.730;8.614;2023-02-13T05:51:34;6.10;;;4.07;;
27113;SDS011;14648;49.730;8.614;2023-02-13T05:54:00;7.83;;;5.27;;
27113;SDS011;14648;49.730;8.614;2023-02-13T05:56:26;8.57;;;5.50;;
27113;SDS011;14648;49.730;8.614;2023-02-13T05:58:54;9.00;;;5.80;;
27113;SDS011;14648;49.730;8.614;2023-02-13T06:01:21;7.90;;;5.10;;
27113;SDS011;14648;49.730;8.614;2023-02-13T06:03:48;7.47;;;5.93;;
27113;SDS011;14648;49.730;8.614;2023-02-13T06:06:14;11.17;;;6.03;;
27113;SDS011;14648;49.730;8.614;2023-02-13T06:08:41;11.97;;;6.40;;
27113;SDS011;14648;49.730;8.614;2023-02-13T06:11:07;13.83;;;5.97;;
27113;SDS011;14648;49.730;8.614;2023-02-13T06:13:33;9.27;;;5.87;;
27113;SDS011;14648;49.730;8.614;2023-02-13T06:15:59;9.77;;;5.87;;
27113;SDS011;14648;49.730;8.614;2023-02-13T06:18:25;12.53;;;7.07;;
27113;SDS011;14648;49.730;8.614;2023-02-13T06:20:52;9.87;;;6.10;;
27113;SDS011;14648;49.730;8.614;2023-02-13T06:23:17;6.67;;;5.17;;
27113;SDS011;14648;49.730;8.614;2023-02-13T06:25:48;13.07;;;6.77;;
27113;SDS011;14648;49.730;8.614;2023-02-13T06:28:14;11.93;;;5.80;;
27113;SDS011;14648;49.730;8.614;2023-02-13T06:30:39;8.20;;;5.50;;
27113;SDS011;14648;49.730;8.614;2023-02-13T06:33:05;9.33;;;5.47;;
27113;SDS011;14648;49.730;8.614;2023-02-13T06:35:31;10.93;;;6.23;;
27113;SDS011;14648;49.730;8.614;2023-02-13T06:37:57;12.83;;;5.57;;
27113;SDS011;14648;49.730;8.614;2023-02-13T06:40:22;10.10;;;6.13;;
27113;SDS011;14648;49.730;8.614;2023-02-13T06:42:49;12.60;;;7.07;;
27113;SDS011;14648;49.730;8.614;2023-02-13T06:45:15;14.97;;;6.33;;
27113;SDS011;14648;49.730;8.614;2023-02-13T06:47:41;9.50;;;5.50;;
27113;SDS011;14648;49.730;8.614;2023-02-13T06:50:09;12.03;;;6.00;;
27113;SDS011;14648;49.730;8.614;2023-02-13T06:52:36;17.60;;;6.10;;
27113;SDS011;14648;49.730;8.614;2023-02-13T06:55:02;17.23;;;8.33;;
27113;SDS011;14648;49.730;8.614;2023-02-13T06:57:29;19.87;;;8.63;;
27113;SDS011;14648;49.730;8.614;2023-02-13T07:00:00;16.97;;;8.70;;
27113;SDS011;14648;49.730;8.614;2023-02-13T07:02:29;16.17;;;7.77;;
27113;SDS011;14648;49.730;8.614;2023-02-13T07:04:56;17.70;;;7.73;;
27113;SDS011;14648;49.730;8.614;2023-02-13T07:07:22;18.43;;;8.63;;
27113;SDS011;14648;49.730;8.614;2023-02-13T07:09:48;21.37;;;8.47;;
27113;SDS011;14648;49.730;8.614;2023-02-13T07:12:13;13.90;;;7.73;;
27113;SDS011;14648;49.730;8.614;2023-02-13T07:14:39;15.03;;;7.00;;
27113;SDS011;14648;49.730;8.614;2023-02-13T07:17:05;15.67;;;8.10;;
27113;SDS011;14648;49.730;8.614;2023-02-13T07:19:31;16.67;;;8.63;;
27113;SDS011;14648;49.730;8.614;2023-02-13T07:21:57;17.50;;;8.20;;
27113;SDS011;14648;49.730;8.614;2023-02-13T07:24:23;16.00;;;9.70;;
27113;SDS011;14648;49.730;8.614;2023-02-13T07:26:50;17.90;;;9.57;;
27113;SDS011;14648;49.730;8.614;2023-02-13T07:29:15;16.40;;;8.03;;
27113;SDS011;14648;49.730;8.614;2023-02-13T07:31:41;15.07;;;7.70;;
27113;SDS011;14648;49.730;8.614;2023-02-13T07:34:07;15.17;;;7.50;;
27113;SDS011;14648;49.730;8.614;2023-02-13T07:36:33;13.37;;;7.37;;
27113;SDS011;14648;49.730;8.614;2023-02-13T07:38:58;23.43;;;8.83;;
27113;SDS011;14648;49.730;8.614;2023-02-13T07:41:27;14.40;;;7.50;;
27113;SDS011;14648;49.730;8.614;2023-02-13T07:43:53;15.63;;;7.90;;
27113;SDS011;14648;49.730;8.614;2023-02-13T07:46:19;16.30;;;8.13;;
27113;SDS011;14648;49.730;8.614;2023-02-13T07:48:44;16.97;;;8.60;;
27113;SDS011;14648;49.730;8.614;2023-02-13T07:51:10;12.80;;;7.70;;
27113;SDS011;14648;49.730;8.614;2023-02-13T07:53:36;19.20;;;7.80;;
27113;SDS011;14648;49.730;8.614;2023-02-13T07:56:05;20.43;;;8.77;;
27113;SDS011;14648;49.730;8.614;2023-02-13T07:58:32;15.90;;;7.97;;
27113;SDS011;14648;49.730;8.614;2023-02-13T08:00:58;18.47;;;8.83;;
27113;SDS011;14648;49.730;8.614;2023-02-13T08:03:32;24.20;;;9.67;;
27113;SDS011;14648;49.730;8.614;2023-02-13T08:05:58;19.60;;;8.70;;
27113;SDS011;14648;49.730;8.614;2023-02-13T08:08:25;24.47;;;10.00;;
27113;SDS011;14648;49.730;8.614;2023-02-13T08:10:50;28.60;;;12.13;;
27113;SDS011;14648;49.730;8.614;2023-02-13T08:13:35;25.50;;;11.17;;
27113;SDS011;14648;49.730;8.614;2023-02-13T08:16:01;31.87;;;11.40;;
27113;SDS011;14648;49.730;8.614;2023-02-13T08:18:27;22.13;;;11.40;;
27113;SDS011;14648;49.730;8.614;2023-02-13T08:20:53;25.73;;;11.37;;
27113;SDS011;14648;49.730;8.614;2023-02-13T08:23:19;21.40;;;10.27;;
27113;SDS011;14648;49.730;8.614;2023-02-13T08:25:44;20.33;;;10.27;;
27113;SDS011;14648;49.730;8.614;2023-02-13T08:28:11;30.67;;;12.03;;
27113;SDS011;14648;49.730;8.614;2023-02-13T08:30:37;28.33;;;11.43;;
27113;SDS011;14648;49.730;8.614;2023-02-13T08:33:03;25.80;;;10.27;;
27113;SDS011;14648;49.730;8.614;2023-02-13T08:35:29;25.27;;;11.97;;
27113;SDS011;14648;49.730;8.614;2023-02-13T08:38:02;23.17;;;11.13;;
27113;SDS011;14648;49.730;8.614;2023-02-13T08:40:34;24.37;;;11.93;;
27113;SDS011;14648;49.730;8.614;2023-02-13T08:43:00;34.50;;;12.33;;
27113;SDS011;14648;49.730;8.614;2023-02-13T08:45:28;27.03;;;11.70;;
27113;SDS011;14648;49.730;8.614;2023-02-13T08:47:55;28.73;;;13.03;;
27113;SDS011;14648;49.730;8.614;2023-02-13T08:50:22;25.87;;;12.63;;
27113;SDS011;14648;49.730;8.614;2023-02-13T08:52:48;31.43;;;12.70;;
27113;SDS011;14648;49.730;8.614;2023-02-13T08:55:14;25.63;;;12.10;;
27113;SDS011;14648;49.730;8.614;2023-02-13T08:57:40;24.47;;;11.30;;
27113;SDS011;14648;49.730;8.614;2023-02-13T09:00:06;23.93;;;11.80;;
27113;SDS011;14648;49.730;8.614;2023-02-13T09:02:33;24.23;;;11.60;;
27113;SDS011;14648;49.730;8.614;2023-02-13T09:04:58;18.43;;;9.43;;
27113;SDS011;14648;49.730;8.614;2023-02-13T09:07:24;21.50;;;10.63;;
27113;SDS011;14648;49.730;8.614;2023-02-13T09:09:50;21.80;;;11.40;;
27113;SDS011;14648;49.730;8.614;2023-02-13T09:12:15;12.93;;;8.10;;
27113;SDS011;14648;49.730;8.614;2023-02-13T09:14:41;16.73;;;10.13;;
27113;SDS011;14648;49.730;8.614;2023-02-13T09:17:07;16.10;;;9.50;;
27113;SDS011;14648;49.730;8.614;2023-02-13T09:19:32;22.03;;;11.10;;
27113;SDS011;14648;49.730;8.614;2023-02-13T09:21:58;23.40;;;11.97;;
27113;SDS011;14648;49.730;8.614;2023-02-13T09:24:24;21.47;;;11.37;;
27113;SDS011;14648;49.730;8.614;2023-02-13T09:26:50;21.67;;;12.13;;
27113;SDS011;14648;49.730;8.614;2023-02-13T09:29:15;19.53;;;11.27;;
27113;SDS011;14648;49.730;8.614;2023-02-13T09:31:41;19.63;;;11.40;;
27113;SDS011;14648;49.730;8.614;2023-02-13T09:34:12;19.80;;;10.93;;
27113;SDS011;14648;49.730;8.614;2023-02-13T09:36:38;21.07;;;11.70;;
27113;SDS011;14648;49.730;8.614;2023-02-13T09:39:04;21.57;;;12.00;;
27113;SDS011;14648;49.730;8.614;2023-02-13T09:41:31;25.40;;;12.53;;
27113;SDS011;14648;49.730;8.614;2023-02-13T09:44:16;27.17;;;14.07;;
27113;SDS011;14648;49.730;8.614;2023-02-13T09:47:04;22.43;;;13.80;;
27113;SDS011;14648;49.730;8.614;2023-02-13T09:50:34;24.47;;;13.87;;
27113;SDS011;14648;49.730;8.614;2023-02-13T09:52:51;21.87;;;13.03;;
27113;SDS011;14648;49.730;8.614;2023-02-13T09:55:23;24.43;;;12.93;;
27113;SDS011;14648;49.730;8.614;2023-02-13T09:58:08;29.37;;;13.63;;
27113;SDS011;14648;49.730;8.614;2023-02-13T10:00:53;22.73;;;14.17;;
27113;SDS011;14648;49.730;8.614;2023-02-13T10:03:28;26.00;;;13.90;;
27113;SDS011;14648;49.730;8.614;2023-02-13T10:11:43;22.30;;;14.10;;
27113;SDS011;14648;49.730;8.614;2023-02-13T10:14:26;19.97;;;13.43;;
27113;SDS011;14648;49.730;8.614;2023-02-13T10:17:08;20.80;;;12.37;;
27113;SDS011;14648;49.730;8.614;2023-02-13T10:19:44;25.03;;;14.67;;
27113;SDS011;14648;49.730;8.614;2023-02-13T10:22:20;20.30;;;12.93;;
27113;SDS011;14648;49.730;8.614;2023-02-13T10:28:29;20.27;;;12.60;;
27113;SDS011;14648;49.730;8.614;2023-02-13T10:30:52;19.93;;;12.10;;
27113;SDS011;14648;49.730;8.614;2023-02-13T10:33:25;25.30;;;12.20;;
27113;SDS011;14648;49.730;8.614;2023-02-13T10:43:59;25.57;;;13.60;;
27113;SDS011;14648;49.730;8.614;2023-02-13T10:46:50;20.77;;;12.10;;
27113;SDS011;14648;49.730;8.614;2023-02-13T10:52:41;17.27;;;10.93;;
27113;SDS011;14648;49.730;8.614;2023-02-13T10:58:00;17.47;;;11.40;;
27113;SDS011;14648;49.730;8.614;2023-02-13T11:03:25;18.57;;;11.00;;
27113;SDS011;14648;49.730;8.614;2023-02-13T11:05:53;22.90;;;10.80;;
27113;SDS011;14648;49.730;8.614;2023-02-13T11:10:58;16.17;;;10.53;;
27113;SDS011;14648;49.730;8.614;2023-02-13T11:13:25;16.93;;;10.67;;
27113;SDS011;14648;49.730;8.614;2023-02-13T11:16:06;15.27;;;9.27;;
27113;SDS011;14648;49.730;8.614;2023-02-13T11:18:38;19.60;;;10.43;;
27113;SDS011;14648;49.730;8.614;2023-02-13T11:21:09;15.67;;;10.60;;
27113;SDS011;14648;49.730;8.614;2023-02-13T11:23:52;12.43;;;9.33;;
27113;SDS011;14648;49.730;8.614;2023-02-13T11:26:23;16.53;;;9.87;;
27113;SDS011;14648;49.730;8.614;2023-02-13T11:28:59;10.93;;;8.90;;
27113;SDS011;14648;49.730;8.614;2023-02-13T11:31:31;11.13;;;8.40;;
27113;SDS011;14648;49.730;8.614;2023-02-13T11:39:37;15.10;;;10.27;;
27113;SDS011;14648;49.730;8.614;2023-02-13T11:42:12;14.53;;;9.13;;
27113;SDS011;14648;49.730;8.614;2023-02-13T11:45:00;14.60;;;8.90;;
27113;SDS011;14648;49.730;8.614;2023-02-13T11:47:40;14.17;;;8.60;;
27113;SDS011;14648;49.730;8.614;2023-02-13T11:50:24;13.77;;;9.23;;
27113;SDS011;14648;49.730;8.614;2023-02-13T11:52:59;11.23;;;8.47;;
27113;SDS011;14648;49.730;8.614;2023-02-13T11:55:31;13.07;;;9.10;;
27113;SDS011;14648;49.730;8.614;2023-02-13T12:00:35;11.00;;;8.40;;
27113;SDS011;14648;49.730;8.614;2023-02-13T12:06:05;12.33;;;8.43;;
27113;SDS011;14648;49.730;8.614;2023-02-13T12:08:40;11.77;;;7.60;;
27113;SDS011;14648;49.730;8.614;2023-02-13T12:14:09;8.97;;;7.10;;
27113;SDS011;14648;49.730;8.614;2023-02-13T12:16:43;12.77;;;8.37;;
27113;SDS011;14648;49.730;8.614;2023-02-13T12:19:27;10.83;;;6.93;;
27113;SDS011;14648;49.730;8.614;2023-02-13T12:22:19;10.93;;;7.40;;
27113;SDS011;14648;49.730;8.614;2023-02-13T12:25:23;9.17;;;6.87;;
27113;SDS011;14648;49.730;8.614;2023-02-13T12:28:19;13.50;;;6.90;;
27113;SDS011;14648;49.730;8.614;2023-02-13T12:31:22;11.33;;;6.90;;
27113;SDS011;14648;49.730;8.614;2023-02-13T12:34:11;11.83;;;6.70;;
27113;SDS011;14648;49.730;8.614;2023-02-13T12:40:16;9.30;;;6.00;;
27113;SDS011;14648;49.730;8.614;2023-02-13T12:46:34;7.50;;;6.60;;
27113;SDS011;14648;49.730;8.614;2023-02-13T13:06:20;11.03;;;6.07;;
27113;SDS011;14648;49.730;8.614;2023-02-13T13:21:21;10.33;;;5.77;;
27113;SDS011;14648;49.730;8.614;2023-02-13T13:26:51;8.93;;;6.53;;
27113;SDS011;14648;49.730;8.614;2023-02-13T13:32:39;5.90;;;4.80;;
27113;SDS011;14648;49.730;8.614;2023-02-13T13:35:14;6.33;;;5.63;;
27113;SDS011;14648;49.730;8.614;2023-02-13T13:46:07;8.00;;;5.27;;
27113;SDS011;14648;49.730;8.614;2023-02-13T13:48:49;8.50;;;5.50;;
27113;SDS011;14648;49.730;8.614;2023-02-13T13:51:25;9.13;;;5.97;;
27113;SDS011;14648;49.730;8.614;2023-02-13T14:07:34;5.40;;;4.87;;
27113;SDS011;14648;49.730;8.614;2023-02-13T14:10:05;6.20;;;5.47;;
27113;SDS011;14648;49.730;8.614;2023-02-13T14:23:31;8.90;;;4.30;;
27113;SDS011;14648;49.730;8.614;2023-02-13T14:31:20;6.97;;;4.57;;
27113;SDS011;14648;49.730;8.614;2023-02-13T14:33:54;4.70;;;4.20;;
27113;SDS011;14648;49.730;8.614;2023-02-13T14:36:33;6.23;;;3.87;;
27113;SDS011;14648;49.730;8.614;2023-02-13T14:39:05;6.63;;;4.50;;
27113;SDS011;14648;49.730;8.614;2023-02-13T14:42:22;4.30;;;3.70;;
27113;SDS011;14648;49.730;8.614;2023-02-13T14:44:58;4.37;;;3.93;;
27113;SDS011;14648;49.730;8.614;2023-02-13T14:47:28;5.97;;;4.07;;
27113;SDS011;14648;49.730;8.614;2023-02-13T14:49:59;5.17;;;3.87;;
27113;SDS011;14648;49.730;8.614;2023-02-13T14:52:32;3.70;;;3.40;;
27113;SDS011;14648;49.730;8.614;2023-02-13T14:55:30;3.93;;;3.57;;
27113;SDS011;14648;49.730;8.614;2023-02-13T14:58:09;6.40;;;4.50;;
27113;SDS011;14648;49.730;8.614;2023-02-13T15:03:49;6.53;;;3.90;;
27113;SDS011;14648;49.730;8.614;2023-02-13T15:06:31;17.57;;;4.10;;
27113;SDS011;14648;49.730;8.614;2023-02-13T15:09:02;3.70;;;3.40;;
27113;SDS011;14648;49.730;8.614;2023-02-13T15:11:38;3.63;;;3.33;;
27113;SDS011;14648;49.730;8.614;2023-02-13T15:14:17;6.50;;;3.40;;
27113;SDS011;14648;49.730;8.614;2023-02-13T15:16:45;5.97;;;4.03;;
27113;SDS011;14648;49.730;8.614;2023-02-13T15:19:20;6.20;;;3.63;;
27113;SDS011;14648;49.730;8.614;2023-02-13T15:21:58;5.10;;;4.63;;
27113;SDS011;14648;49.730;8.614;2023-02-13T15:24:27;5.03;;;4.10;;
27113;SDS011;14648;49.730;8.614;2023-02-13T15:27:03;4.20;;;3.80;;
27113;SDS011;14648;49.730;8.614;2023-02-13T15:29:31;5.03;;;4.13;;
27113;SDS011;14648;49.730;8.614;2023-02-13T15:31:57;3.73;;;3.40;;
27113;SDS011;14648;49.730;8.614;2023-02-13T15:34:30;4.17;;;3.87;;
27113;SDS011;14648;49.730;8.614;2023-02-13T15:36:59;5.80;;;4.43;;
27113;SDS011;14648;49.730;8.614;2023-02-13T15:39:27;4.30;;;3.90;;
27113;SDS011;14648;49.730;8.614;2023-02-13T15:41:59;3.50;;;3.03;;
27113;SDS011;14648;49.730;8.614;2023-02-13T15:44:29;4.73;;;3.40;;
27113;SDS011;14648;49.730;8.614;2023-02-13T15:47:14;7.90;;;3.80;;
27113;SDS011;14648;49.730;8.614;2023-02-13T15:49:50;4.37;;;3.60;;
27113;SDS011;14648;49.730;8.614;2023-02-13T15:52:17;8.17;;;4.30;;
27113;SDS011;14648;49.730;8.614;2023-02-13T15:54:56;5.23;;;4.30;;
27113;SDS011;14648;49.730;8.614;2023-02-13T15:57:22;6.17;;;4.43;;
27113;SDS011;14648;49.730;8.614;2023-02-13T15:59:50;5.00;;;3.40;;
27113;SDS011;14648;49.730;8.614;2023-02-13T16:02:23;5.70;;;4.30;;
27113;SDS011;14648;49.730;8.614;2023-02-13T16:04:59;6.10;;;3.93;;
27113;SDS011;14648;49.730;8.614;2023-02-13T16:07:26;7.17;;;3.97;;
27113;SDS011;14648;49.730;8.614;2023-02-13T16:09:51;4.00;;;3.43;;
27113;SDS011;14648;49.730;8.614;2023-02-13T16:13:01;8.40;;;4.43;;
27113;SDS011;14648;49.730;8.614;2023-02-13T16:15:31;11.33;;;4.20;;
27113;SDS011;14648;49.730;8.614;2023-02-13T16:18:00;6.47;;;4.03;;
27113;SDS011;14648;49.730;8.614;2023-02-13T16:20:28;5.40;;;4.90;;
27113;SDS011;14648;49.730;8.614;2023-02-13T16:22:56;7.53;;;5.70;;
27113;SDS011;14648;49.730;8.614;2023-02-13T16:25:33;6.50;;;5.77;;
27113;SDS011;14648;49.730;8.614;2023-02-13T16:28:14;8.20;;;5.77;;
27113;SDS011;14648;49.730;8.614;2023-02-13T16:30:55;9.33;;;5.93;;
27113;SDS011;14648;49.730;8.614;2023-02-13T16:33:28;5.60;;;4.57;;
27113;SDS011;14648;49.730;8.614;2023-02-13T16:36:17;8.13;;;4.83;;
27113;SDS011;14648;49.730;8.614;2023-02-13T16:38:53;5.17;;;3.77;;
27113;SDS011;14648;49.730;8.614;2023-02-13T16:43:52;8.60;;;4.60;;
27113;SDS011;14648;49.730;8.614;2023-02-13T16:51:45;9.97;;;6.73;;
27113;SDS011;14648;49.730;8.614;2023-02-13T16:57:21;11.30;;;6.63;;
27113;SDS011;14648;49.730;8.614;2023-02-13T17:00:38;8.17;;;5.57;;
27113;SDS011;14648;49.730;8.614;2023-02-13T17:02:47;7.63;;;5.30;;
27113;SDS011;14648;49.730;8.614;2023-02-13T17:05:27;8.67;;;5.70;;
27113;SDS011;14648;49.730;8.614;2023-02-13T17:07:53;10.70;;;6.50;;
27113;SDS011;14648;49.730;8.614;2023-02-13T17:10:38;9.00;;;6.70;;
27113;SDS011;14648;49.730;8.614;2023-02-13T17:13:14;15.40;;;6.80;;
27113;SDS011;14648;49.730;8.614;2023-02-13T17:15:45;13.10;;;7.03;;
27113;SDS011;14648;49.730;8.614;2023-02-13T17:18:20;11.93;;;7.10;;
27113;SDS011;14648;49.730;8.614;2023-02-13T17:20:46;10.50;;;5.73;;
27113;SDS011;14648;49.730;8.614;2023-02-13T17:23:14;10.67;;;7.23;;
27113;SDS011;14648;49.730;8.614;2023-02-13T17:25:45;14.20;;;6.00;;
27113;SDS011;14648;49.730;8.614;2023-02-13T17:28:13;8.23;;;6.10;;
27113;SDS011;14648;49.730;8.614;2023-02-13T17:30:41;11.60;;;6.83;;
27113;SDS011;14648;49.730;8.614;2023-02-13T17:33:12;12.20;;;7.33;;
27113;SDS011;14648;49.730;8.614;2023-02-13T17:35:42;11.33;;;7.17;;
27113;SDS011;14648;49.730;8.614;2023-02-13T17:38:08;11.00;;;6.47;;
27113;SDS011;14648;49.730;8.614;2023-02-13T17:40:34;11.20;;;6.90;;
27113;SDS011;14648;49.730;8.614;2023-02-13T17:43:00;11.40;;;7.33;;
27113;SDS011;14648;49.730;8.614;2023-02-13T17:45:27;13.83;;;7.30;;
27113;SDS011;14648;49.730;8.614;2023-02-13T17:47:55;11.83;;;7.40;;
27113;SDS011;14648;49.730;8.614;2023-02-13T17:50:27;12.17;;;7.87;;
27113;SDS011;14648;49.730;8.614;2023-02-13T17:52:55;11.77;;;7.30;;